Time;durP1;ratioP1;P1;durP2;ratioP2;P2;SDS_P1;SDS_P2;PMS_P1;PMS_P2;Temp;Humidity;BMP_temperature;BMP_pressure;BME280_temperature;BME280_humidity;BME280_pressure;Samples;Min_cycle;Max_cycle;Signal;HPM_P1;HPM_P2
2022/12/24 00:02:18;;;;;;;7.37;1.07;;;14.30;55.30;;;;;;5012054;28;20198;-52
2022/12/24 00:04:44;;;;;;;3.15;1.40;;;14.30;54.90;;;;;;5012333;28;20202;-52
2022/12/24 00:07:10;;;;;;;5.60;2.00;;;14.40;54.70;;;;;;5012261;28;20242;-52
2022/12/24 00:09:36;;;;;;;2.53;1.73;;;14.40;54.70;;;;;;5012304;28;20175;-52
2022/12/24 00:12:02;;;;;;;3.40;1.50;;;14.40;54.40;;;;;;5011949;28;20174;-52
2022/12/24 00:14:28;;;;;;;1.77;1.02;;;14.30;53.70;;;;;;5012240;28;20253;-52
2022/12/24 00:16:54;;;;;;;3.10;1.67;;;14.30;54.00;;;;;;5012138;28;20308;-52
2022/12/24 00:19:19;;;;;;;2.80;0.83;;;14.20;54.10;;;;;;5012169;28;20257;-52
2022/12/24 00:21:45;;;;;;;2.37;1.83;;;14.10;53.80;;;;;;5012132;28;20170;-51
2022/12/24 00:24:11;;;;;;;2.30;0.83;;;14.10;54.60;;;;;;5011870;28;20205;-52
2022/12/24 00:26:36;;;;;;;2.00;1.30;;;14.10;53.80;;;;;;5012098;28;20158;-52
2022/12/24 00:29:02;;;;;;;2.30;1.40;;;14.20;54.40;;;;;;5012119;28;20502;-52
2022/12/24 00:31:28;;;;;;;1.90;1.00;;;14.20;53.30;;;;;;5012172;28;20174;-51
2022/12/24 00:33:54;;;;;;;4.07;1.20;;;14.10;53.80;;;;;;5014587;28;20401;-52
2022/12/24 00:36:20;;;;;;;3.33;1.25;;;14.10;54.10;;;;;;5015985;28;20178;-52
2022/12/24 00:38:46;;;;;;;3.45;1.00;;;14.10;54.30;;;;;;5015852;28;20212;-52
2022/12/24 00:41:27;;;;;;;2.00;1.00;;;14.20;54.20;;;;;;5015889;28;20603;-52
2022/12/24 00:43:57;;;;;;;2.97;1.27;;;14.20;54.20;;;;;;5015650;28;20214;-52
2022/12/24 00:46:25;;;;;;;3.80;1.35;;;14.20;54.40;;;;;;5015908;28;20159;-52
2022/12/24 00:48:51;;;;;;;2.00;1.40;;;14.30;54.10;;;;;;5015724;28;20198;-52
2022/12/24 00:51:18;;;;;;;4.27;1.77;;;14.40;53.70;;;;;;5015937;28;20540;-52
2022/12/24 00:53:43;;;;;;;7.07;1.67;;;14.50;53.40;;;;;;5015564;28;20174;-52
2022/12/24 00:56:09;;;;;;;4.13;1.57;;;14.40;53.30;;;;;;5015675;28;20232;-52
2022/12/24 00:58:36;;;;;;;4.32;1.33;;;14.40;53.20;;;;;;5015607;28;20194;-52
2022/12/24 01:01:02;;;;;;;4.45;1.50;;;14.30;53.40;;;;;;5015601;28;20606;-52
2022/12/24 01:03:37;;;;;;;2.03;1.40;;;14.40;53.20;;;;;;5015306;28;20273;-52
2022/12/24 01:06:06;;;;;;;3.58;1.60;;;14.40;53.00;;;;;;5015481;28;20659;-52
2022/12/24 01:08:32;;;;;;;4.45;1.65;;;14.30;53.20;;;;;;5015425;28;20218;-52
2022/12/24 01:10:58;;;;;;;5.97;1.60;;;14.30;53.00;;;;;;5015559;28;20253;-52
2022/12/24 01:13:23;;;;;;;3.20;1.47;;;14.30;53.00;;;;;;5015166;28;20258;-52
2022/12/24 01:15:50;;;;;;;6.37;2.00;;;14.30;52.50;;;;;;5015326;28;20271;-52
2022/12/24 01:18:15;;;;;;;3.25;1.15;;;14.30;52.30;;;;;;5015166;28;20919;-52
2022/12/24 01:20:41;;;;;;;6.67;1.70;;;14.30;52.40;;;;;;5015254;28;20183;-52
2022/12/24 01:23:07;;;;;;;2.83;1.50;;;14.30;52.20;;;;;;5014863;28;20445;-52
2022/12/24 01:25:33;;;;;;;10.03;1.57;;;14.30;52.40;;;;;;5015134;28;20911;-51
2022/12/24 01:27:58;;;;;;;5.17;1.77;;;14.30;52.10;;;;;;5015001;28;20517;-51
2022/12/24 01:30:24;;;;;;;10.90;1.83;;;14.30;51.90;;;;;;5015085;28;20249;-51
2022/12/24 01:32:50;;;;;;;4.03;1.83;;;14.30;51.60;;;;;;5014788;28;20179;-51
2022/12/24 01:35:16;;;;;;;5.50;1.80;;;14.30;51.80;;;;;;5014951;28;20202;-52
2022/12/24 01:37:42;;;;;;;4.70;2.15;;;14.30;51.50;;;;;;5014688;28;20210;-52
2022/12/24 01:45:50;;;;;;;8.15;2.03;;;14.20;51.40;;;;;;5014754;28;20182;-51
2022/12/24 01:48:34;;;;;;;6.43;2.15;;;14.30;51.10;;;;;;5014619;28;20221;-52
2022/12/24 01:51:03;;;;;;;6.22;2.67;;;14.30;51.40;;;;;;5014711;28;20159;-51
2022/12/24 01:53:30;;;;;;;7.05;1.88;;;14.40;51.20;;;;;;5014379;28;20703;-51
2022/12/24 01:55:57;;;;;;;3.95;1.70;;;14.30;51.20;;;;;;5014572;28;20171;-52
2022/12/24 01:58:25;;;;;;;4.40;2.25;;;14.40;51.00;;;;;;5014359;28;20217;-53
2022/12/24 02:00:51;;;;;;;4.82;2.13;;;14.40;50.90;;;;;;5014375;28;20182;-52
2022/12/24 02:03:17;;;;;;;8.00;1.83;;;14.30;50.90;;;;;;5014178;28;20194;-52
2022/12/24 02:05:56;;;;;;;5.30;1.98;;;14.30;50.90;;;;;;5014418;28;20163;-51
2022/12/24 02:08:22;;;;;;;7.07;2.00;;;14.10;51.40;;;;;;5014258;28;20245;-52
2022/12/24 02:10:49;;;;;;;11.90;2.00;;;14.10;51.50;;;;;;5014222;28;20629;-52
2022/12/24 02:13:18;;;;;;;7.90;2.05;;;14.10;51.60;;;;;;5014071;28;20763;-52
2022/12/24 02:15:44;;;;;;;6.43;2.40;;;13.90;51.90;;;;;;5014174;28;20182;-51
2022/12/24 02:18:36;;;;;;;6.68;2.00;;;14.00;51.90;;;;;;5014260;28;20290;-51
2022/12/24 02:21:22;;;;;;;5.85;2.63;;;14.10;51.50;;;;;;5003520;28;20201;-51
2022/12/24 02:24:09;;;;;;;7.68;2.10;;;14.20;51.50;;;;;;5013790;28;20256;-52
2022/12/24 02:27:04;;;;;;;4.35;2.08;;;14.20;51.20;;;;;;5014034;28;20171;-51
2022/12/24 02:29:42;;;;;;;6.00;1.85;;;14.20;50.60;;;;;;5011651;28;20277;-52
2022/12/24 02:32:32;;;;;;;5.85;1.77;;;14.20;50.90;;;;;;5013627;28;20205;-51
2022/12/24 02:35:42;;;;;;;3.75;1.33;;;14.20;50.90;;;;;;5013914;28;20171;-52
2022/12/24 02:38:26;;;;;;;7.18;2.00;;;14.20;50.60;;;;;;4993311;28;20225;-50
2022/12/24 02:41:01;;;;;;;5.97;2.70;;;14.20;50.60;;;;;;5013726;28;20182;-52
2022/12/24 02:43:35;;;;;;;5.35;2.25;;;14.10;50.50;;;;;;5013472;28;20190;-51
2022/12/24 02:46:09;;;;;;;4.80;2.47;;;14.20;50.40;;;;;;5013672;28;20683;-51
2022/12/24 02:48:37;;;;;;;4.22;1.75;;;14.10;50.20;;;;;;5013544;28;20249;-51
2022/12/24 02:51:04;;;;;;;7.00;1.70;;;14.30;50.60;;;;;;5013569;28;20174;-52
2022/12/24 02:53:31;;;;;;;5.55;1.80;;;14.40;50.50;;;;;;5013286;28;20178;-51
2022/12/24 02:56:25;;;;;;;5.18;1.60;;;14.40;50.50;;;;;;5012738;28;20198;-52
2022/12/24 02:59:17;;;;;;;4.22;1.75;;;14.30;50.90;;;;;;5013258;28;20201;-51
2022/12/24 03:02:03;;;;;;;6.57;2.17;;;14.20;51.20;;;;;;5013326;28;20170;-52
2022/12/24 03:04:57;;;;;;;3.95;1.38;;;14.30;51.30;;;;;;5013398;28;20174;-51
2022/12/24 03:07:37;;;;;;;6.32;1.70;;;14.30;51.10;;;;;;5013210;28;20272;-52
2022/12/24 03:10:03;;;;;;;4.85;1.73;;;14.30;51.00;;;;;;4995662;28;20263;-52
2022/12/24 03:12:39;;;;;;;2.83;1.43;;;14.40;51.00;;;;;;5012985;28;20257;-52
2022/12/24 03:15:08;;;;;;;2.80;1.80;;;14.40;50.90;;;;;;5013143;28;20221;-52
2022/12/24 03:17:37;;;;;;;4.30;1.80;;;14.50;50.90;;;;;;5012938;28;20249;-52
2022/12/24 03:20:04;;;;;;;11.18;2.35;;;14.40;50.90;;;;;;5013035;28;20167;-52
2022/12/24 03:22:33;;;;;;;5.07;2.35;;;14.40;51.20;;;;;;5012700;28;20201;-51
2022/12/24 03:24:59;;;;;;;5.30;1.80;;;14.30;51.80;;;;;;5012971;28;20213;-51
2022/12/24 03:27:28;;;;;;;3.25;1.60;;;14.30;52.00;;;;;;5012844;28;20206;-51
2022/12/24 03:29:54;;;;;;;2.75;1.35;;;14.30;52.10;;;;;;5012808;28;20548;-52
2022/12/24 03:32:26;;;;;;;7.60;2.28;;;14.20;52.10;;;;;;5012621;28;20182;-51
2022/12/24 03:34:52;;;;;;;3.90;1.15;;;14.10;52.30;;;;;;5013203;28;20206;-51
2022/12/24 03:37:18;;;;;;;4.35;1.65;;;14.10;52.30;;;;;;5012595;28;20213;-51
2022/12/24 03:39:44;;;;;;;2.67;1.80;;;14.10;52.50;;;;;;5012765;28;20726;-51
2022/12/24 03:42:10;;;;;;;5.20;2.30;;;14.10;52.30;;;;;;5012346;28;20203;-51
2022/12/24 03:44:35;;;;;;;5.33;1.50;;;14.10;52.10;;;;;;5012463;28;20175;-51
2022/12/24 03:47:01;;;;;;;6.47;1.20;;;14.10;52.00;;;;;;5012576;28;20196;-51
2022/12/24 03:49:27;;;;;;;2.27;1.47;;;14.10;51.60;;;;;;5012611;28;20217;-51
2022/12/24 03:51:53;;;;;;;3.53;1.80;;;14.10;51.40;;;;;;5012399;28;20277;-51
2022/12/24 03:54:19;;;;;;;10.70;3.17;;;14.00;51.90;;;;;;5012462;28;20820;-51
2022/12/24 03:56:44;;;;;;;6.30;1.20;;;14.10;51.90;;;;;;5012384;28;20410;-51
2022/12/24 03:59:10;;;;;;;6.47;1.43;;;14.10;51.50;;;;;;5012327;28;20178;-51
2022/12/24 04:01:36;;;;;;;3.50;1.40;;;14.10;51.50;;;;;;5012383;28;20198;-51
2022/12/24 04:04:02;;;;;;;3.20;0.90;;;14.20;51.20;;;;;;5012073;28;20238;-51
2022/12/24 04:06:27;;;;;;;3.00;1.43;;;14.10;50.80;;;;;;5012230;28;20171;-51
2022/12/24 04:08:53;;;;;;;5.93;1.50;;;14.00;51.30;;;;;;5012256;28;20266;-51
2022/12/24 04:11:19;;;;;;;2.30;1.67;;;14.00;51.40;;;;;;5012428;28;20190;-51
2022/12/24 04:13:44;;;;;;;5.13;1.33;;;14.00;51.50;;;;;;5011961;28;20580;-51
2022/12/24 04:16:13;;;;;;;3.33;1.40;;;14.00;51.50;;;;;;5012213;28;20185;-51
2022/12/24 04:18:40;;;;;;;3.47;1.52;;;14.00;51.30;;;;;;5012212;28;20195;-51
2022/12/24 04:21:06;;;;;;;11.73;1.65;;;14.10;51.20;;;;;;5012218;28;20170;-51
2022/12/24 04:23:34;;;;;;;3.65;1.30;;;14.00;51.10;;;;;;5011885;28;20216;-51
2022/12/24 04:26:01;;;;;;;6.28;2.53;;;14.00;50.80;;;;;;5012116;28;20174;-51
2022/12/24 04:28:28;;;;;;;2.15;1.00;;;14.00;50.60;;;;;;5011997;28;20194;-51
2022/12/24 04:31:02;;;;;;;1.55;0.85;;;14.00;49.80;;;;;;5012196;28;20167;-51
2022/12/24 04:33:28;;;;;;;3.63;1.27;;;14.00;50.00;;;;;;5011877;28;20704;-51
2022/12/24 04:35:56;;;;;;;9.73;2.20;;;13.90;49.60;;;;;;5012031;28;20182;-52
2022/12/24 04:38:22;;;;;;;3.55;1.48;;;13.90;50.00;;;;;;5011935;28;20431;-51
2022/12/24 04:40:47;;;;;;;6.13;1.30;;;14.00;49.30;;;;;;5012067;28;20640;-52
2022/12/24 04:43:13;;;;;;;3.00;1.23;;;14.00;49.60;;;;;;5011702;28;20207;-51
2022/12/24 04:45:39;;;;;;;2.40;1.60;;;14.00;48.80;;;;;;5011995;28;20241;-51
2022/12/24 04:48:05;;;;;;;2.83;1.40;;;14.00;48.70;;;;;;5011856;28;20274;-51
2022/12/24 04:50:31;;;;;;;7.60;3.10;;;14.10;48.70;;;;;;5011923;28;20245;-51
2022/12/24 04:52:57;;;;;;;3.13;2.03;;;14.00;48.50;;;;;;5011713;28;20178;-51
2022/12/24 04:55:23;;;;;;;4.70;1.70;;;14.00;48.30;;;;;;5011790;28;20257;-51
2022/12/24 04:57:49;;;;;;;4.60;1.48;;;14.00;49.30;;;;;;5011700;28;20238;-51
2022/12/24 05:00:15;;;;;;;3.07;2.17;;;13.90;48.30;;;;;;5011867;28;20201;-52
2022/12/24 05:02:41;;;;;;;2.77;1.50;;;14.00;49.10;;;;;;5011612;28;20230;-51
2022/12/24 05:05:07;;;;;;;4.87;2.43;;;14.00;48.40;;;;;;5011813;28;20414;-51
2022/12/24 05:07:33;;;;;;;6.03;1.73;;;14.00;48.50;;;;;;5011726;28;20210;-51
2022/12/24 05:09:59;;;;;;;7.47;1.85;;;14.00;48.80;;;;;;5011615;28;20202;-52
2022/12/24 05:12:24;;;;;;;4.80;1.23;;;14.10;48.40;;;;;;5011510;28;20571;-51
2022/12/24 05:14:50;;;;;;;8.17;2.13;;;14.10;48.20;;;;;;5011736;28;20239;-51
2022/12/24 05:17:16;;;;;;;4.40;1.77;;;14.10;48.20;;;;;;5011654;28;20588;-51
2022/12/24 05:19:41;;;;;;;3.93;1.77;;;14.00;48.80;;;;;;5013847;28;20258;-51
2022/12/24 05:27:35;;;;;;;3.53;1.80;;;13.90;49.50;;;;;;5015073;28;20198;-51
2022/12/24 05:30:01;;;;;;;6.10;2.10;;;13.90;49.70;;;;;;5015105;28;20544;-51
2022/12/24 05:32:27;;;;;;;2.20;1.20;;;14.00;49.70;;;;;;5014855;28;20174;-51
2022/12/24 05:34:53;;;;;;;8.17;2.30;;;14.10;49.50;;;;;;5014948;28;20408;-51
2022/12/24 05:37:19;;;;;;;4.80;1.63;;;14.10;49.50;;;;;;5014794;28;21149;-52
2022/12/24 05:39:44;;;;;;;6.53;1.73;;;14.20;49.40;;;;;;5014967;28;20487;-52
2022/12/24 05:42:10;;;;;;;2.60;1.17;;;14.20;49.10;;;;;;5014483;28;20258;-52
2022/12/24 05:44:36;;;;;;;9.70;1.33;;;14.10;49.00;;;;;;5014900;28;20167;-52
2022/12/24 05:47:02;;;;;;;6.30;1.83;;;14.10;48.50;;;;;;5014804;28;20182;-52
2022/12/24 05:49:28;;;;;;;8.10;2.43;;;14.00;48.40;;;;;;5014675;28;20198;-52
2022/12/24 05:51:53;;;;;;;5.17;1.50;;;14.00;49.10;;;;;;5014526;28;20186;-52
2022/12/24 05:54:19;;;;;;;4.43;2.30;;;14.00;48.40;;;;;;5014583;28;20174;-52
2022/12/24 05:56:45;;;;;;;4.23;2.10;;;14.00;48.50;;;;;;5014512;28;20174;-51
2022/12/24 05:59:10;;;;;;;7.37;2.77;;;14.00;48.40;;;;;;5014500;28;20202;-52
2022/12/24 06:01:36;;;;;;;3.23;1.60;;;14.00;47.80;;;;;;5014448;28;20624;-52
2022/12/24 06:04:02;;;;;;;8.27;2.10;;;14.00;47.80;;;;;;5014119;28;20190;-52
2022/12/24 06:06:28;;;;;;;5.67;2.10;;;14.00;47.50;;;;;;5014461;28;20167;-52
2022/12/24 06:08:54;;;;;;;2.13;1.50;;;13.90;48.00;;;;;;5014331;28;20718;-52
2022/12/24 06:11:23;;;;;;;6.60;2.20;;;14.00;47.50;;;;;;5014243;28;20438;-52
2022/12/24 06:13:49;;;;;;;7.60;2.45;;;13.90;47.90;;;;;;5014063;28;20561;-52
2022/12/24 06:16:17;;;;;;;5.23;2.43;;;13.90;48.10;;;;;;5014288;28;20171;-52
2022/12/24 06:18:44;;;;;;;4.72;1.80;;;13.80;47.60;;;;;;5014037;28;20214;-52
2022/12/24 06:21:11;;;;;;;3.80;1.55;;;13.70;48.70;;;;;;5014122;28;20185;-52
2022/12/24 06:23:38;;;;;;;4.78;1.95;;;13.60;48.60;;;;;;5013783;28;20279;-52
2022/12/24 06:26:06;;;;;;;4.75;1.88;;;13.60;48.60;;;;;;5014016;28;20175;-52
2022/12/24 06:28:34;;;;;;;3.15;1.90;;;13.60;48.70;;;;;;5013948;28;20193;-52
2022/12/24 06:31:01;;;;;;;5.32;1.45;;;13.60;48.70;;;;;;5012783;28;20175;-51
2022/12/24 06:33:27;;;;;;;5.25;1.67;;;13.60;47.80;;;;;;5013645;28;20170;-51
2022/12/24 06:35:53;;;;;;;8.43;3.60;;;13.50;48.70;;;;;;5013785;28;20186;-52
2022/12/24 06:38:19;;;;;;;4.50;1.93;;;13.50;48.20;;;;;;5013655;28;20571;-52
2022/12/24 06:40:46;;;;;;;2.85;1.80;;;13.60;49.00;;;;;;5013666;28;20199;-52
2022/12/24 06:43:13;;;;;;;10.00;2.75;;;13.70;47.70;;;;;;5013480;28;20667;-52
2022/12/24 06:45:43;;;;;;;7.20;1.80;;;13.70;47.70;;;;;;5013655;28;20175;-52
2022/12/24 06:48:09;;;;;;;4.50;2.20;;;13.70;47.10;;;;;;5013556;28;20571;-52
2022/12/24 06:50:34;;;;;;;5.87;2.77;;;13.60;46.90;;;;;;5013639;28;20171;-52
2022/12/24 06:53:00;;;;;;;4.67;1.63;;;13.60;46.70;;;;;;5013443;28;20986;-52
2022/12/24 06:55:26;;;;;;;10.07;1.90;;;13.50;46.60;;;;;;5013449;28;20229;-52
2022/12/24 06:57:52;;;;;;;5.87;2.10;;;13.60;46.60;;;;;;5013352;28;20240;-51
2022/12/24 07:00:18;;;;;;;6.80;2.70;;;13.70;46.30;;;;;;5013333;28;20776;-51
2022/12/24 07:02:44;;;;;;;3.17;1.50;;;13.70;45.70;;;;;;5013142;28;20194;-52
2022/12/24 07:05:11;;;;;;;7.85;1.92;;;13.80;44.70;;;;;;5013305;28;20603;-53
2022/12/24 07:07:38;;;;;;;9.20;1.85;;;13.70;44.50;;;;;;5013152;28;20241;-52
2022/12/24 07:10:05;;;;;;;3.50;1.33;;;13.80;45.10;;;;;;5013105;28;20170;-52
2022/12/24 07:12:31;;;;;;;7.45;2.05;;;13.90;44.50;;;;;;5012984;28;20267;-51
2022/12/24 07:14:56;;;;;;;5.67;2.40;;;13.90;44.10;;;;;;5013209;28;20210;-52
2022/12/24 07:17:22;;;;;;;7.67;1.70;;;14.00;44.10;;;;;;5013034;28;20195;-52
2022/12/24 07:19:48;;;;;;;2.67;1.70;;;14.10;43.30;;;;;;5013050;28;20171;-52
2022/12/24 07:22:13;;;;;;;6.20;2.67;;;14.00;42.90;;;;;;5012717;28;20252;-52
2022/12/24 07:24:39;;;;;;;5.63;1.90;;;14.00;43.70;;;;;;5012923;28;20714;-53
2022/12/24 07:27:05;;;;;;;4.33;2.10;;;14.00;43.10;;;;;;5012919;28;20183;-51
2022/12/24 07:29:31;;;;;;;5.43;2.00;;;14.00;42.60;;;;;;5012773;28;20190;-52
2022/12/24 07:31:56;;;;;;;2.73;1.57;;;13.90;42.30;;;;;;5012639;28;20712;-52
2022/12/24 07:34:22;;;;;;;3.93;1.40;;;13.80;43.40;;;;;;5012837;28;20175;-52
2022/12/24 07:36:48;;;;;;;3.63;1.80;;;13.80;43.10;;;;;;5012514;28;20217;-52
2022/12/24 07:39:13;;;;;;;5.70;2.17;;;13.80;42.80;;;;;;5012681;28;20158;-52
2022/12/24 07:41:39;;;;;;;7.40;2.67;;;13.90;43.40;;;;;;5012290;28;20298;-52
2022/12/24 07:44:05;;;;;;;5.30;2.07;;;13.90;42.30;;;;;;5012306;28;20203;-52
2022/12/24 07:46:31;;;;;;;10.20;3.40;;;13.90;42.30;;;;;;5012635;28;20166;-52
2022/12/24 07:48:56;;;;;;;2.60;1.43;;;13.80;42.60;;;;;;5012433;28;20186;-52
2022/12/24 07:51:22;;;;;;;6.07;3.67;;;13.80;42.00;;;;;;5012443;28;20393;-52
2022/12/24 07:53:48;;;;;;;5.90;2.63;;;13.80;41.70;;;;;;5012222;28;20181;-52
2022/12/24 07:56:15;;;;;;;6.60;2.40;;;13.70;42.50;;;;;;5012496;28;20631;-52
2022/12/24 07:58:41;;;;;;;4.07;2.33;;;13.70;43.10;;;;;;5012294;28;20190;-52
2022/12/24 08:01:08;;;;;;;12.10;2.75;;;13.80;43.20;;;;;;5012403;28;20640;-52
2022/12/24 08:03:34;;;;;;;6.78;2.08;;;13.80;42.30;;;;;;5012024;28;20214;-52
2022/12/24 08:05:59;;;;;;;7.37;2.30;;;13.80;42.60;;;;;;5012320;28;20542;-53
2022/12/24 08:08:25;;;;;;;3.60;2.07;;;13.70;42.70;;;;;;5012153;28;20266;-52
2022/12/24 08:10:51;;;;;;;8.05;2.25;;;13.60;43.00;;;;;;5012529;28;20179;-52
2022/12/24 08:13:17;;;;;;;4.83;1.80;;;13.70;43.70;;;;;;5011891;28;20228;-52
2022/12/24 08:15:44;;;;;;;7.90;2.93;;;13.70;43.40;;;;;;5012538;28;20182;-52
2022/12/24 08:18:10;;;;;;;5.50;1.50;;;13.70;44.00;;;;;;5012136;28;20926;-52
2022/12/24 08:20:39;;;;;;;7.78;1.50;;;13.80;44.20;;;;;;5012286;28;20743;-52
2022/12/24 08:23:05;;;;;;;5.57;1.65;;;13.70;44.30;;;;;;5011805;28;20241;-53
2022/12/24 08:25:31;;;;;;;4.50;1.80;;;13.70;45.00;;;;;;4994592;28;20183;-52
2022/12/24 08:27:56;;;;;;;4.83;1.87;;;13.80;44.60;;;;;;5011974;28;20691;-51
2022/12/24 08:30:22;;;;;;;6.80;1.50;;;13.90;44.60;;;;;;5012098;28;20514;-52
2022/12/24 08:32:48;;;;;;;2.87;1.23;;;13.70;44.60;;;;;;5011844;28;20710;-52
2022/12/24 08:35:14;;;;;;;8.73;1.90;;;13.60;45.30;;;;;;5012044;28;20179;-52
2022/12/24 08:37:39;;;;;;;9.40;2.70;;;13.60;45.60;;;;;;5011823;28;20488;-52
2022/12/24 08:40:06;;;;;;;8.33;2.97;;;13.60;45.70;;;;;;5012135;28;20663;-52
2022/12/24 08:42:31;;;;;;;2.50;1.90;;;13.70;45.10;;;;;;5011669;28;20317;-52
2022/12/24 08:44:57;;;;;;;8.63;2.67;;;13.80;45.20;;;;;;5011970;28;20652;-52
2022/12/24 08:47:23;;;;;;;4.03;2.30;;;13.90;44.90;;;;;;5011849;28;20193;-51
2022/12/24 08:49:49;;;;;;;6.87;1.53;;;13.90;44.30;;;;;;5011901;28;20569;-52
2022/12/24 08:52:14;;;;;;;8.73;3.27;;;13.90;43.80;;;;;;5011715;28;20171;-52
2022/12/24 08:54:40;;;;;;;4.93;2.67;;;13.90;44.60;;;;;;5014154;28;20701;-53
2022/12/24 08:57:06;;;;;;;5.30;2.37;;;14.00;44.60;;;;;;5015654;28;20210;-52
2022/12/24 08:59:31;;;;;;;7.97;2.50;;;14.00;44.10;;;;;;5015678;28;20181;-52
2022/12/24 09:01:57;;;;;;;5.43;1.93;;;14.10;43.90;;;;;;5015334;28;20198;-52
2022/12/24 09:04:23;;;;;;;4.30;2.43;;;14.20;44.00;;;;;;5015419;28;20199;-52
2022/12/24 09:06:48;;;;;;;4.63;1.67;;;14.20;43.30;;;;;;5015392;28;20204;-52
2022/12/24 09:09:14;;;;;;;5.63;2.27;;;14.20;43.90;;;;;;5015409;28;20641;-52
2022/12/24 09:11:40;;;;;;;6.73;2.47;;;14.30;43.60;;;;;;5015299;28;20220;-51
2022/12/24 09:14:06;;;;;;;7.07;2.27;;;14.20;42.80;;;;;;5015150;28;20522;-52
2022/12/24 09:16:31;;;;;;;6.73;2.50;;;14.30;43.00;;;;;;5015330;28;20175;-52
2022/12/24 09:18:58;;;;;;;9.00;2.50;;;14.30;42.00;;;;;;5015178;28;20266;-52
2022/12/24 09:21:23;;;;;;;5.68;2.78;;;14.30;41.90;;;;;;5015145;28;20170;-52
2022/12/24 09:23:49;;;;;;;8.87;2.20;;;14.30;41.70;;;;;;5014862;28;20758;-52
2022/12/24 09:26:18;;;;;;;4.87;2.47;;;14.30;41.80;;;;;;5015057;28;20173;-52
2022/12/24 09:28:44;;;;;;;5.63;3.08;;;14.30;41.70;;;;;;5014990;28;20201;-52
2022/12/24 09:31:11;;;;;;;5.63;2.78;;;14.30;41.60;;;;;;5015046;28;20175;-52
2022/12/24 09:33:38;;;;;;;11.00;3.47;;;14.30;41.50;;;;;;5014848;28;20171;-52
2022/12/24 09:36:05;;;;;;;5.45;2.10;;;14.30;41.80;;;;;;5014886;28;20178;-51
2022/12/24 09:38:31;;;;;;;3.65;2.13;;;14.40;40.10;;;;;;5014745;28;20210;-52
2022/12/24 09:40:58;;;;;;;8.40;2.33;;;14.30;41.00;;;;;;5014795;28;20187;-52
2022/12/24 09:43:28;;;;;;;8.70;2.50;;;14.30;40.00;;;;;;5014521;28;20195;-52
2022/12/24 09:46:26;;;;;;;8.07;2.30;;;14.30;40.30;;;;;;5014824;28;20174;-52
2022/12/24 09:48:57;;;;;;;7.85;1.98;;;14.60;39.70;;;;;;4999035;28;20211;-52
2022/12/24 09:51:46;;;;;;;5.50;1.58;;;14.80;40.10;;;;;;5014582;28;20182;-52
2022/12/24 09:54:28;;;;;;;7.07;2.90;;;15.00;39.60;;;;;;5014559;28;20217;-52
2022/12/24 09:56:55;;;;;;;9.48;2.35;;;15.20;39.60;;;;;;5014509;28;20178;-52
2022/12/24 09:59:30;;;;;;;10.65;3.03;;;15.20;38.20;;;;;;5014545;28;20686;-52
2022/12/24 10:01:56;;;;;;;8.68;2.53;;;15.20;38.90;;;;;;5014261;28;20202;-53
2022/12/24 10:04:28;;;;;;;6.93;1.90;;;15.40;39.40;;;;;;5014082;28;20230;-52
2022/12/24 10:07:37;;;;;;;3.80;1.70;;;15.90;38.40;;;;;;5014305;28;20151;-52
2022/12/24 10:10:19;;;;;;;10.15;2.45;;;17.00;36.80;;;;;;5014202;28;20159;-52
2022/12/24 10:12:50;;;;;;;4.15;2.03;;;18.00;34.90;;;;;;5014161;28;20175;-52
2022/12/24 10:15:34;;;;;;;8.63;2.10;;;17.40;32.10;;;;;;5014318;28;20663;-52
2022/12/24 10:18:05;;;;;;;6.88;2.88;;;19.00;31.60;;;;;;5014247;28;20675;-53
2022/12/24 10:20:51;;;;;;;5.38;2.50;;;19.30;31.80;;;;;;5014033;28;20179;-53
2022/12/24 10:23:46;;;;;;;11.02;3.10;;;19.20;30.70;;;;;;5013760;28;20298;-53
2022/12/24 10:26:21;;;;;;;9.98;3.65;;;18.70;31.70;;;;;;5014140;28;20624;-52
2022/12/24 10:29:03;;;;;;;9.27;2.55;;;18.30;32.50;;;;;;5013886;28;20190;-53
2022/12/24 10:31:33;;;;;;;9.57;2.90;;;17.70;33.40;;;;;;5013936;28;20628;-52
2022/12/24 10:34:12;;;;;;;5.90;3.20;;;18.10;33.40;;;;;;5013588;28;20174;-52
2022/12/24 10:36:37;;;;;;;9.57;2.80;;;18.50;32.80;;;;;;5013801;28;20171;-52
2022/12/24 10:39:03;;;;;;;5.70;3.00;;;19.10;32.30;;;;;;5013564;28;20210;-53
2022/12/24 10:41:30;;;;;;;6.47;2.47;;;19.80;31.40;;;;;;5013666;28;20413;-52
2022/12/24 10:43:58;;;;;;;5.90;1.98;;;20.50;31.50;;;;;;5013408;28;20190;-53
2022/12/24 10:46:36;;;;;;;5.65;2.45;;;20.90;31.10;;;;;;5013642;28;20195;-52
2022/12/24 10:49:05;;;;;;;9.00;2.60;;;21.30;29.00;;;;;;5013494;28;20277;-53
2022/12/24 10:52:10;;;;;;;10.40;3.60;;;21.40;30.00;;;;;;5013443;28;20667;-53
2022/12/24 10:54:38;;;;;;;6.25;2.65;;;21.50;28.30;;;;;;5010358;28;20179;-52
2022/12/24 10:57:18;;;;;;;12.32;3.47;;;20.70;29.40;;;;;;5013339;28;20201;-53
2022/12/24 10:59:53;;;;;;;10.27;2.60;;;20.40;30.00;;;;;;5013406;28;20167;-53
2022/12/24 11:02:34;;;;;;;5.15;2.28;;;19.60;30.40;;;;;;5013116;28;20182;-52
2022/12/24 11:05:01;;;;;;;3.92;2.47;;;18.90;31.40;;;;;;5013231;28;20190;-53
2022/12/24 11:07:29;;;;;;;11.25;3.92;;;18.40;32.50;;;;;;5013207;28;20183;-52
2022/12/24 11:10:01;;;;;;;7.05;3.08;;;18.00;33.00;;;;;;5013352;28;20177;-52
2022/12/24 11:12:46;;;;;;;11.80;2.75;;;17.40;34.40;;;;;;5012806;28;20233;-52
2022/12/24 11:15:18;;;;;;;3.83;2.20;;;17.20;35.20;;;;;;5013065;28;20170;-52
2022/12/24 11:17:53;;;;;;;7.60;2.72;;;16.90;36.00;;;;;;5012300;28;20190;-52
2022/12/24 11:20:25;;;;;;;11.55;1.77;;;16.60;36.40;;;;;;5013075;28;20150;-52
2022/12/24 11:22:51;;;;;;;10.57;2.20;;;16.50;36.90;;;;;;5012679;28;20245;-53
2022/12/24 11:25:39;;;;;;;4.90;1.93;;;16.20;36.90;;;;;;5012880;28;20253;-51
2022/12/24 11:28:25;;;;;;;6.15;2.85;;;15.90;38.10;;;;;;5012835;28;20417;-52
2022/12/24 11:31:04;;;;;;;7.88;2.55;;;15.90;38.70;;;;;;5012812;28;20536;-52
2022/12/24 11:33:31;;;;;;;6.88;3.10;;;15.70;38.50;;;;;;4994901;28;20175;-52
2022/12/24 11:36:03;;;;;;;3.72;1.80;;;15.60;39.10;;;;;;5012749;28;20715;-52
2022/12/24 11:38:31;;;;;;;4.13;2.53;;;15.50;39.40;;;;;;5012512;28;20221;-52
2022/12/24 11:41:06;;;;;;;7.38;2.10;;;15.40;39.30;;;;;;5012648;28;20178;-52
2022/12/24 11:43:45;;;;;;;7.32;1.70;;;15.30;40.00;;;;;;5012321;28;20198;-52
2022/12/24 11:56:48;;;;;;;4.50;2.05;;;15.50;40.70;;;;;;5012629;28;20273;-52
2022/12/24 11:59:24;;;;;;;3.63;1.95;;;15.60;41.20;;;;;;5012486;28;20159;-52
2022/12/24 12:02:33;;;;;;;5.40;2.08;;;15.80;40.80;;;;;;5012286;28;20190;-53
2022/12/24 12:05:06;;;;;;;4.43;1.88;;;16.00;40.20;;;;;;4995137;28;20198;-52
2022/12/24 12:07:37;;;;;;;8.15;2.10;;;16.00;40.10;;;;;;5012223;28;20663;-53
2022/12/24 12:10:23;;;;;;;4.22;1.75;;;16.00;40.00;;;;;;5012247;28;20181;-52
2022/12/24 12:13:13;;;;;;;5.75;2.40;;;16.10;39.60;;;;;;5012089;28;20177;-52
2022/12/24 12:16:00;;;;;;;4.57;2.15;;;15.90;40.00;;;;;;5000971;28;20182;-52
2022/12/24 12:18:37;;;;;;;6.47;1.20;;;15.60;40.10;;;;;;5012163;28;20201;-52
2022/12/24 12:21:08;;;;;;;9.18;2.15;;;15.60;40.70;;;;;;5012170;28;20201;-52
2022/12/24 12:23:52;;;;;;;4.47;1.70;;;15.60;40.70;;;;;;5011871;28;20571;-52
2022/12/24 12:26:29;;;;;;;5.00;1.90;;;15.60;40.60;;;;;;5012129;28;20644;-52
2022/12/24 12:29:30;;;;;;;6.00;2.35;;;15.40;40.90;;;;;;5015112;28;20529;-52
2022/12/24 12:32:03;;;;;;;7.53;2.13;;;15.30;41.40;;;;;;5002631;28;20220;-53
2022/12/24 12:34:35;;;;;;;6.22;1.95;;;15.30;41.40;;;;;;5016122;28;20779;-52
2022/12/24 12:37:27;;;;;;;4.78;1.50;;;15.40;41.30;;;;;;5015891;28;20210;-52
2022/12/24 12:39:54;;;;;;;7.18;1.58;;;15.30;41.70;;;;;;5016047;28;20260;-52
2022/12/24 12:42:30;;;;;;;4.32;1.90;;;15.40;41.90;;;;;;5015746;28;20177;-52
2022/12/24 12:45:14;;;;;;;4.07;2.92;;;15.40;41.80;;;;;;5015904;28;20178;-52
2022/12/24 12:47:49;;;;;;;4.05;2.15;;;15.30;42.80;;;;;;5015801;28;20194;-52
2022/12/24 12:50:42;;;;;;;5.05;2.55;;;15.20;42.90;;;;;;5015819;28;20170;-52
2022/12/24 12:53:38;;;;;;;3.60;1.40;;;15.00;43.10;;;;;;5015630;28;20171;-52
2022/12/24 12:56:12;;;;;;;5.68;2.10;;;14.90;42.80;;;;;;5015706;28;20167;-52
2022/12/24 12:58:53;;;;;;;4.53;1.80;;;14.90;43.40;;;;;;5015594;28;20281;-52
2022/12/24 13:01:29;;;;;;;4.97;1.80;;;15.00;43.20;;;;;;5015632;28;20258;-52
2022/12/24 13:04:26;;;;;;;9.90;2.45;;;15.20;42.90;;;;;;5015345;28;20198;-52
2022/12/24 13:06:57;;;;;;;4.63;1.70;;;15.30;42.80;;;;;;5015278;28;20171;-52
2022/12/24 13:10:01;;;;;;;8.52;2.80;;;15.40;42.60;;;;;;5015453;28;20166;-52
2022/12/24 13:13:08;;;;;;;8.68;2.25;;;15.50;42.80;;;;;;5015217;28;20655;-52
2022/12/24 13:15:54;;;;;;;2.78;1.35;;;15.60;42.80;;;;;;5012984;28;20548;-52
2022/12/24 13:18:41;;;;;;;3.63;1.30;;;15.80;42.40;;;;;;5015218;28;20248;-52
2022/12/24 13:21:17;;;;;;;5.00;1.60;;;16.00;43.20;;;;;;5015273;28;20209;-52
2022/12/24 13:23:43;;;;;;;3.17;2.00;;;16.30;41.70;;;;;;5014960;28;20284;-52
2022/12/24 13:26:13;;;;;;;4.57;1.80;;;16.70;40.70;;;;;;5015153;28;20167;-52